Time;durP1;ratioP1;P1;durP2;ratioP2;P2;SDS_P1;SDS_P2;PMS_P1;PMS_P2;Temp;Humidity;BMP_temperature;BMP_pressure;BME280_temperature;BME280_humidity;BME280_pressure;Samples;Min_cycle;Max_cycle;Signal;HPM_P1;HPM_P2
2024/02/18 00:01:00;;;;;;;96.90;47.30;;;9.20;99.90;;;;;;4940959;28;20047;-67
2024/02/18 00:03:27;;;;;;;104.50;51.17;;;9.10;99.90;;;;;;4948285;28;20626;-67
2024/02/18 00:05:55;;;;;;;91.75;45.55;;;9.10;99.90;;;;;;4949748;28;20050;-67
2024/02/18 00:08:22;;;;;;;103.68;47.25;;;9.00;99.90;;;;;;4952870;28;20154;-67
2024/02/18 00:10:49;;;;;;;102.57;48.33;;;8.90;99.90;;;;;;4946046;28;20055;-67
2024/02/18 00:13:15;;;;;;;107.82;48.50;;;8.80;99.90;;;;;;4947195;28;20876;-67
2024/02/18 00:15:42;;;;;;;99.38;49.63;;;8.70;99.90;;;;;;4948740;28;20450;-68
2024/02/18 00:18:09;;;;;;;110.15;51.30;;;8.60;99.90;;;;;;4947837;28;20053;-67
2024/02/18 00:20:37;;;;;;;113.00;53.38;;;8.50;99.90;;;;;;4942040;28;20138;-67
2024/02/18 00:23:03;;;;;;;119.78;54.92;;;8.30;99.90;;;;;;4923593;28;20058;-67
2024/02/18 00:25:30;;;;;;;116.07;53.17;;;8.20;99.90;;;;;;4925526;28;20121;-68
2024/02/18 00:27:57;;;;;;;120.93;55.30;;;8.20;99.90;;;;;;4941335;28;20043;-67
2024/02/18 00:30:26;;;;;;;112.15;51.60;;;8.10;99.90;;;;;;4944300;28;20617;-67
2024/02/18 00:32:53;;;;;;;118.68;55.15;;;7.90;99.90;;;;;;4952181;28;20050;-67
2024/02/18 00:35:20;;;;;;;118.00;52.05;;;7.80;99.90;;;;;;4947095;28;20106;-67
2024/02/18 00:37:46;;;;;;;131.10;54.47;;;7.80;99.90;;;;;;4945670;28;20044;-66
2024/02/18 00:40:13;;;;;;;126.72;53.28;;;7.60;99.90;;;;;;4940699;28;20039;-68
2024/02/18 00:42:40;;;;;;;140.10;57.80;;;7.50;99.90;;;;;;4944420;28;20055;-67
2024/02/18 00:45:07;;;;;;;133.93;55.33;;;7.50;99.90;;;;;;4947450;28;20498;-67
2024/02/18 00:47:34;;;;;;;177.82;60.80;;;7.50;99.90;;;;;;4950790;28;20471;-67
2024/02/18 00:50:02;;;;;;;151.68;56.28;;;7.50;99.90;;;;;;4947531;28;21462;-66
2024/02/18 00:52:28;;;;;;;156.70;56.70;;;7.40;99.90;;;;;;4924969;28;20071;-69
2024/02/18 00:54:55;;;;;;;161.65;58.85;;;7.40;99.90;;;;;;4925735;28;20044;-69
2024/02/18 00:57:22;;;;;;;149.93;57.80;;;7.30;99.90;;;;;;4921532;28;20062;-67
2024/02/18 00:59:49;;;;;;;154.80;57.13;;;7.30;99.90;;;;;;4929989;28;20639;-67
2024/02/18 01:02:16;;;;;;;138.63;54.42;;;7.10;99.90;;;;;;4926709;28;20078;-69
2024/02/18 01:04:43;;;;;;;134.70;53.75;;;7.10;99.90;;;;;;4927580;28;20046;-69
2024/02/18 01:07:10;;;;;;;156.57;59.75;;;7.10;99.90;;;;;;4934550;28;20039;-69
2024/02/18 01:09:37;;;;;;;146.68;55.00;;;7.00;99.90;;;;;;4946477;28;20048;-69
2024/02/18 01:12:04;;;;;;;137.10;54.33;;;7.00;99.90;;;;;;4926979;28;20051;-69
2024/02/18 01:14:31;;;;;;;145.05;53.72;;;7.00;99.90;;;;;;4924545;28;20484;-69
2024/02/18 01:16:58;;;;;;;163.35;55.78;;;6.90;99.90;;;;;;4944415;28;21178;-68
2024/02/18 01:19:25;;;;;;;170.32;54.97;;;6.90;99.90;;;;;;4943432;28;20051;-68
2024/02/18 01:21:52;;;;;;;164.15;56.80;;;6.80;99.90;;;;;;4947773;28;20045;-69
2024/02/18 01:24:19;;;;;;;151.73;56.47;;;6.60;99.90;;;;;;4948477;28;20545;-69
2024/02/18 01:26:46;;;;;;;136.90;51.15;;;6.60;99.90;;;;;;4951491;28;20543;-69
2024/02/18 01:29:13;;;;;;;141.68;51.50;;;6.50;99.90;;;;;;4949007;28;20055;-69
2024/02/18 01:31:40;;;;;;;171.55;57.08;;;6.60;99.90;;;;;;4947489;28;20039;-68
2024/02/18 01:34:06;;;;;;;152.35;58.60;;;6.60;99.90;;;;;;4951529;28;20049;-69
2024/02/18 01:36:33;;;;;;;156.80;54.30;;;6.60;99.90;;;;;;4950033;28;20051;-68
2024/02/18 01:39:02;;;;;;;171.52;54.67;;;6.60;99.90;;;;;;4952158;28;20423;-69
2024/02/18 01:41:29;;;;;;;166.15;55.20;;;6.60;99.90;;;;;;4944219;28;20059;-69
2024/02/18 01:43:55;;;;;;;165.32;55.50;;;6.70;99.90;;;;;;4927149;28;20066;-68
2024/02/18 01:46:23;;;;;;;166.70;56.75;;;6.60;99.90;;;;;;4946542;28;20055;-67
2024/02/18 01:48:50;;;;;;;145.80;51.45;;;6.60;99.90;;;;;;4947260;28;20042;-68
2024/02/18 01:51:18;;;;;;;180.65;58.78;;;6.70;99.90;;;;;;4948194;28;20487;-68
2024/02/18 01:53:45;;;;;;;172.80;55.50;;;6.90;99.90;;;;;;4964790;28;20487;-69
2024/02/18 01:56:16;;;;;;;180.95;57.72;;;6.90;99.90;;;;;;4937172;28;20053;-68
2024/02/18 01:58:43;;;;;;;174.85;55.33;;;6.80;99.90;;;;;;4930756;28;20055;-69
2024/02/18 02:01:11;;;;;;;171.60;52.75;;;6.70;99.90;;;;;;4925448;28;20056;-69
2024/02/18 02:03:38;;;;;;;166.77;55.17;;;6.80;99.90;;;;;;4933552;28;20130;-68
2024/02/18 02:06:07;;;;;;;157.13;55.70;;;6.80;99.90;;;;;;4934562;28;20135;-69
2024/02/18 02:08:34;;;;;;;153.20;55.13;;;7.00;99.90;;;;;;4948094;28;20112;-69
2024/02/18 02:11:01;;;;;;;152.90;50.75;;;7.00;99.90;;;;;;4941796;28;20684;-70
2024/02/18 02:13:28;;;;;;;168.82;54.55;;;7.10;99.90;;;;;;4931902;28;20054;-67
2024/02/18 02:15:55;;;;;;;148.15;49.60;;;7.00;99.90;;;;;;4935018;28;20094;-69
2024/02/18 02:18:22;;;;;;;153.95;52.65;;;6.90;99.90;;;;;;4947105;28;20078;-69
2024/02/18 02:20:49;;;;;;;146.77;51.17;;;6.90;99.90;;;;;;4952846;28;20076;-69
2024/02/18 02:23:16;;;;;;;166.10;53.88;;;6.90;99.90;;;;;;4951746;28;20057;-70
2024/02/18 02:25:43;;;;;;;148.25;54.88;;;7.00;99.90;;;;;;4956054;28;20061;-69
2024/02/18 02:28:20;;;;;;;154.52;50.40;;;7.20;99.90;;;;;;4949200;28;20694;-67
2024/02/18 02:30:48;;;;;;;143.93;50.65;;;7.10;99.90;;;;;;4944063;28;20051;-69
2024/02/18 02:33:16;;;;;;;157.27;50.75;;;7.20;99.90;;;;;;4927714;28;20558;-68
2024/02/18 02:35:45;;;;;;;147.30;52.35;;;7.20;99.90;;;;;;4932651;28;20043;-67
2024/02/18 02:38:12;;;;;;;142.60;50.60;;;7.30;99.90;;;;;;4927430;28;20062;-68
2024/02/18 02:40:39;;;;;;;151.88;53.28;;;7.40;99.90;;;;;;4934839;28;20067;-69
2024/02/18 02:43:06;;;;;;;118.95;48.72;;;7.40;99.90;;;;;;4953362;28;20732;-68
2024/02/18 02:45:33;;;;;;;124.35;48.38;;;7.40;99.90;;;;;;4947928;28;20057;-69
2024/02/18 02:48:00;;;;;;;106.90;45.10;;;7.50;99.90;;;;;;4950004;28;20051;-69
2024/02/18 02:50:27;;;;;;;123.60;48.00;;;7.50;99.90;;;;;;4954033;28;20055;-70
2024/02/18 02:52:53;;;;;;;112.78;43.78;;;7.50;99.90;;;;;;4951590;28;20058;-67
2024/02/18 02:55:20;;;;;;;111.65;44.80;;;7.30;99.90;;;;;;4953026;28;20510;-67
2024/02/18 02:57:52;;;;;;;100.70;39.70;;;7.40;99.90;;;;;;4953510;28;20047;-68
2024/02/18 03:00:20;;;;;;;111.80;43.13;;;7.40;99.90;;;;;;4975312;28;20106;-71
2024/02/18 03:02:47;;;;;;;134.43;47.63;;;7.20;99.90;;;;;;4958154;28;20070;-69
2024/02/18 03:05:14;;;;;;;129.23;48.83;;;7.40;99.90;;;;;;4950773;28;20070;-69
2024/02/18 03:07:42;;;;;;;125.00;47.35;;;7.30;99.90;;;;;;4953843;28;20586;-71
2024/02/18 03:10:09;;;;;;;127.43;49.45;;;7.30;99.90;;;;;;4962988;28;20035;-67
2024/02/18 03:12:36;;;;;;;121.32;46.20;;;7.40;99.90;;;;;;4946201;28;20054;-68
2024/02/18 03:15:05;;;;;;;109.05;42.50;;;7.50;99.90;;;;;;4949601;28;20049;-68
2024/02/18 03:17:33;;;;;;;101.93;40.50;;;7.60;99.90;;;;;;4952274;28;20801;-69
2024/02/18 03:19:59;;;;;;;97.93;40.55;;;7.70;99.90;;;;;;4950959;28;20038;-69
2024/02/18 03:22:27;;;;;;;95.60;41.65;;;7.70;99.90;;;;;;4928707;28;20051;-69
2024/02/18 03:24:54;;;;;;;100.28;41.50;;;7.70;99.90;;;;;;4927614;28;20519;-68
2024/02/18 03:27:21;;;;;;;95.35;40.13;;;7.80;99.90;;;;;;4924586;28;20054;-69
2024/02/18 03:29:48;;;;;;;96.53;39.55;;;7.80;99.90;;;;;;4926649;28;20959;-69
2024/02/18 03:32:15;;;;;;;89.60;39.03;;;7.70;99.90;;;;;;4925045;28;20935;-69
2024/02/18 03:34:42;;;;;;;91.18;38.13;;;7.80;99.90;;;;;;4925990;28;20114;-69
2024/02/18 03:37:10;;;;;;;87.43;39.45;;;7.90;99.90;;;;;;4923379;28;20039;-69
2024/02/18 03:39:37;;;;;;;70.78;33.15;;;7.90;99.90;;;;;;4927699;28;20060;-68
2024/02/18 03:42:05;;;;;;;70.40;33.03;;;7.90;99.90;;;;;;4927619;28;20039;-68
2024/02/18 03:44:32;;;;;;;71.72;33.50;;;8.00;99.90;;;;;;4927891;28;20044;-68
2024/02/18 03:46:58;;;;;;;74.57;33.25;;;8.00;99.90;;;;;;4927159;28;20047;-68
2024/02/18 03:49:25;;;;;;;74.07;36.28;;;8.10;99.90;;;;;;4948437;28;20035;-69
2024/02/18 03:51:52;;;;;;;78.07;36.08;;;8.00;99.90;;;;;;4940618;28;20051;-68
2024/02/18 03:54:19;;;;;;;72.80;35.05;;;8.10;99.90;;;;;;4949429;28;20167;-69
2024/02/18 03:56:46;;;;;;;68.60;34.83;;;8.00;99.90;;;;;;4949463;28;20043;-69
2024/02/18 03:59:16;;;;;;;60.05;31.58;;;8.00;99.90;;;;;;4944249;28;20062;-69
2024/02/18 04:01:42;;;;;;;62.13;31.50;;;8.00;99.90;;;;;;4950887;28;20054;-69
2024/02/18 04:04:09;;;;;;;67.85;32.65;;;7.90;99.90;;;;;;4946948;28;20049;-68
2024/02/18 04:06:36;;;;;;;80.75;36.88;;;7.90;99.90;;;;;;4948811;28;20043;-69
2024/02/18 04:09:05;;;;;;;77.28;34.80;;;7.80;99.90;;;;;;4941411;28;20046;-68
2024/02/18 04:11:32;;;;;;;79.88;34.72;;;7.70;99.90;;;;;;4947663;28;20056;-69
2024/02/18 04:13:59;;;;;;;74.97;34.72;;;7.70;99.90;;;;;;4946325;28;20102;-68
2024/02/18 04:16:26;;;;;;;79.63;32.80;;;7.60;99.90;;;;;;4947783;28;20074;-69
2024/02/18 04:18:53;;;;;;;79.75;33.70;;;7.60;99.90;;;;;;4946736;28;20074;-69
2024/02/18 04:21:20;;;;;;;66.88;29.95;;;7.50;99.90;;;;;;4945874;28;20050;-69
2024/02/18 04:23:48;;;;;;;74.30;32.97;;;7.40;99.90;;;;;;4946982;28;20066;-69
2024/02/18 04:26:14;;;;;;;62.15;30.02;;;7.40;99.90;;;;;;4946650;28;20507;-68
2024/02/18 04:28:43;;;;;;;54.00;27.52;;;7.40;99.90;;;;;;4962028;28;20130;-71
2024/02/18 04:31:10;;;;;;;59.58;29.63;;;7.40;99.90;;;;;;4946579;28;20035;-68
2024/02/18 04:33:37;;;;;;;69.70;30.70;;;7.60;99.90;;;;;;4954869;28;20039;-69
2024/02/18 04:36:05;;;;;;;64.38;30.88;;;7.50;99.90;;;;;;4953367;28;20050;-67
2024/02/18 04:38:31;;;;;;;68.18;31.50;;;7.40;99.90;;;;;;4945010;28;20112;-68
2024/02/18 04:40:58;;;;;;;74.53;32.50;;;7.40;99.90;;;;;;4954314;28;20508;-68
2024/02/18 04:43:25;;;;;;;71.78;31.63;;;7.40;99.90;;;;;;4950435;28;20154;-66
2024/02/18 04:45:52;;;;;;;63.55;30.83;;;7.40;99.90;;;;;;4941904;28;20255;-68
2024/02/18 04:48:19;;;;;;;67.35;31.73;;;7.40;99.90;;;;;;4927295;28;20630;-68
2024/02/18 04:50:46;;;;;;;62.33;27.88;;;7.50;99.90;;;;;;4936930;28;20522;-68
2024/02/18 04:53:13;;;;;;;64.05;29.13;;;7.40;99.90;;;;;;4934179;28;20046;-68
2024/02/18 04:55:39;;;;;;;66.80;29.95;;;7.30;99.90;;;;;;4946828;28;20130;-68
2024/02/18 04:58:06;;;;;;;76.05;31.50;;;7.30;99.90;;;;;;4951661;28;20089;-68
2024/02/18 05:00:33;;;;;;;67.93;31.45;;;7.40;99.90;;;;;;4952305;28;20066;-68
2024/02/18 05:03:02;;;;;;;66.82;30.30;;;7.40;99.90;;;;;;4970268;28;20087;-67
2024/02/18 05:05:29;;;;;;;62.95;29.80;;;7.50;99.90;;;;;;4955729;28;20145;-67
2024/02/18 05:07:55;;;;;;;59.28;30.23;;;7.50;99.90;;;;;;4954149;28;20047;-68
2024/02/18 05:10:22;;;;;;;58.92;29.48;;;7.60;99.90;;;;;;4949303;28;20057;-68
2024/02/18 05:12:49;;;;;;;47.40;27.55;;;7.60;99.90;;;;;;4955874;28;20050;-69
2024/02/18 05:15:16;;;;;;;47.30;27.58;;;7.70;99.90;;;;;;4952273;28;20043;-68
2024/02/18 05:17:43;;;;;;;46.30;24.42;;;7.60;99.90;;;;;;4950352;28;20058;-68
2024/02/18 05:20:10;;;;;;;46.88;26.20;;;7.60;99.90;;;;;;4955292;28;20047;-68
2024/02/18 05:22:40;;;;;;;44.50;24.83;;;7.70;99.90;;;;;;4955268;28;20085;-68
2024/02/18 05:25:07;;;;;;;57.25;27.13;;;7.60;99.90;;;;;;4957171;28;20046;-67
2024/02/18 05:27:34;;;;;;;50.25;26.15;;;7.70;99.90;;;;;;4951777;28;20053;-67
2024/02/18 05:30:03;;;;;;;47.13;25.95;;;7.70;99.90;;;;;;4951421;28;20074;-66
2024/02/18 05:32:30;;;;;;;52.15;26.92;;;7.60;99.90;;;;;;4931110;28;20074;-69
2024/02/18 05:34:57;;;;;;;49.00;24.75;;;7.60;99.90;;;;;;4932957;28;20071;-68
2024/02/18 05:37:24;;;;;;;42.88;25.80;;;7.60;99.90;;;;;;4963623;28;20090;-68
2024/02/18 05:39:50;;;;;;;34.75;21.08;;;7.60;99.90;;;;;;4951443;28;20050;-68
2024/02/18 05:42:17;;;;;;;35.85;21.95;;;7.50;99.90;;;;;;4946705;28;20043;-67
2024/02/18 05:44:44;;;;;;;28.98;20.83;;;7.50;99.90;;;;;;4952585;28;20061;-69
2024/02/18 05:47:11;;;;;;;36.45;21.52;;;7.50;99.90;;;;;;4926760;28;20043;-69
2024/02/18 05:49:37;;;;;;;42.63;21.98;;;7.60;99.90;;;;;;4928823;28;20054;-66
2024/02/18 05:52:10;;;;;;;37.08;21.83;;;7.50;99.90;;;;;;4923940;28;20103;-68
2024/02/18 05:54:37;;;;;;;45.25;23.38;;;7.40;99.90;;;;;;4929376;28;20751;-69
2024/02/18 05:57:06;;;;;;;41.05;21.92;;;7.40;99.90;;;;;;4945781;28;20043;-68
2024/02/18 05:59:33;;;;;;;37.25;21.65;;;7.50;99.90;;;;;;4946768;28;20051;-69
2024/02/18 06:02:00;;;;;;;35.85;22.40;;;7.50;99.90;;;;;;4942249;28;20047;-69
2024/02/18 06:04:27;;;;;;;30.70;19.88;;;7.50;99.90;;;;;;4936515;28;20264;-69
2024/02/18 06:06:54;;;;;;;29.17;19.15;;;7.60;99.90;;;;;;4948732;28;20047;-69
2024/02/18 06:09:21;;;;;;;38.58;20.88;;;7.70;99.90;;;;;;4948172;28;20050;-67
2024/02/18 06:11:48;;;;;;;26.77;17.58;;;7.80;99.90;;;;;;4949581;28;20043;-69
2024/02/18 06:14:15;;;;;;;27.77;17.17;;;7.90;99.90;;;;;;4955073;28;20047;-67
2024/02/18 06:16:42;;;;;;;27.40;18.25;;;7.90;99.90;;;;;;4949541;28;20066;-67
2024/02/18 06:19:09;;;;;;;26.27;17.00;;;8.00;99.90;;;;;;4945648;28;20046;-66
2024/02/18 06:21:41;;;;;;;29.08;17.83;;;8.00;99.90;;;;;;4936946;28;20046;-69
2024/02/18 06:24:08;;;;;;;25.63;17.15;;;7.80;99.90;;;;;;4923281;28;20048;-67
2024/02/18 06:26:39;;;;;;;30.02;18.63;;;7.70;99.90;;;;;;4924419;28;20050;-66
2024/02/18 06:29:06;;;;;;;24.23;17.77;;;7.60;99.90;;;;;;4930757;28;20050;-67
2024/02/18 06:31:32;;;;;;;31.48;16.90;;;7.70;99.90;;;;;;4925282;28;20132;-67
2024/02/18 06:33:59;;;;;;;30.80;18.08;;;7.80;99.90;;;;;;4933132;28;20107;-67
2024/02/18 06:36:28;;;;;;;28.13;18.77;;;7.80;99.90;;;;;;4957590;28;20104;-67
2024/02/18 06:38:55;;;;;;;30.88;17.77;;;7.90;99.90;;;;;;4965146;28;20055;-70
2024/02/18 06:41:22;;;;;;;32.22;18.15;;;7.90;99.90;;;;;;4944641;28;20049;-72
2024/02/18 06:43:49;;;;;;;30.02;18.02;;;7.80;99.90;;;;;;4948775;28;20054;-68
2024/02/18 06:46:16;;;;;;;28.35;18.67;;;7.80;99.90;;;;;;4937323;28;20603;-67
2024/02/18 06:48:43;;;;;;;26.10;17.80;;;7.90;99.90;;;;;;4931148;28;20692;-67
2024/02/18 06:51:10;;;;;;;25.77;18.73;;;8.00;99.90;;;;;;4937106;28;20716;-68
2024/02/18 06:53:37;;;;;;;25.42;19.13;;;8.00;99.90;;;;;;4946129;28;20046;-68
2024/02/18 06:56:04;;;;;;;29.25;17.88;;;8.00;99.90;;;;;;4948643;28;20054;-68
2024/02/18 06:58:31;;;;;;;27.73;18.90;;;8.00;99.90;;;;;;4947087;28;20046;-68
2024/02/18 07:00:58;;;;;;;27.17;19.35;;;8.10;99.90;;;;;;4941784;28;20569;-68
2024/02/18 07:03:25;;;;;;;28.33;19.23;;;8.10;99.90;;;;;;4926016;28;20043;-67
2024/02/18 07:05:52;;;;;;;26.90;19.88;;;8.20;99.90;;;;;;4927157;28;20164;-68
2024/02/18 07:08:19;;;;;;;31.35;21.60;;;8.30;99.90;;;;;;4925676;28;20051;-68
2024/02/18 07:10:46;;;;;;;29.30;21.55;;;8.30;99.90;;;;;;4923884;28;20043;-67
2024/02/18 07:13:12;;;;;;;28.25;22.00;;;8.40;99.90;;;;;;4922629;28;20118;-68
2024/02/18 07:15:39;;;;;;;35.00;23.20;;;8.40;99.90;;;;;;4924167;28;20047;-67
2024/02/18 07:18:06;;;;;;;25.63;21.38;;;8.40;99.90;;;;;;4932610;28;20811;-67
2024/02/18 07:20:34;;;;;;;27.88;21.27;;;8.50;99.90;;;;;;4931242;28;20703;-69
2024/02/18 07:23:01;;;;;;;25.67;21.52;;;8.50;99.90;;;;;;4945878;28;20043;-68
2024/02/18 07:25:28;;;;;;;26.58;20.33;;;8.50;99.90;;;;;;4934528;28;20051;-68
2024/02/18 07:27:55;;;;;;;28.77;22.98;;;8.50;99.90;;;;;;4931572;28;20039;-69
2024/02/18 07:30:22;;;;;;;32.45;22.10;;;8.40;99.90;;;;;;4929306;28;20082;-68
2024/02/18 07:32:48;;;;;;;35.92;23.85;;;8.50;99.90;;;;;;4946787;28;20057;-69
2024/02/18 07:35:16;;;;;;;32.22;22.48;;;8.50;99.90;;;;;;4938532;28;20043;-69
2024/02/18 07:37:42;;;;;;;30.10;23.98;;;8.40;99.90;;;;;;4927582;28;20053;-68
2024/02/18 07:40:10;;;;;;;27.58;23.73;;;8.50;99.90;;;;;;4925066;28;20113;-68
2024/02/18 07:42:37;;;;;;;31.05;24.90;;;8.50;99.90;;;;;;4923689;28;20504;-69
2024/02/18 07:45:05;;;;;;;36.42;25.67;;;8.60;99.90;;;;;;4949779;28;20439;-69
2024/02/18 07:47:32;;;;;;;31.67;23.90;;;8.50;99.90;;;;;;4928946;28;20048;-69
2024/02/18 07:49:59;;;;;;;30.48;24.27;;;8.60;99.90;;;;;;4925460;28;20032;-68
2024/02/18 07:52:27;;;;;;;30.17;23.92;;;8.60;99.90;;;;;;4944122;28;20113;-69
2024/02/18 07:54:54;;;;;;;29.83;24.92;;;8.70;99.90;;;;;;4964569;28;20051;-68
2024/02/18 07:57:21;;;;;;;30.40;25.27;;;8.70;99.90;;;;;;4929952;28;20051;-69
2024/02/18 07:59:47;;;;;;;28.35;23.35;;;8.80;99.90;;;;;;4921955;28;20043;-68
2024/02/18 08:02:14;;;;;;;27.58;23.27;;;8.90;99.90;;;;;;4941724;28;20046;-68
2024/02/18 08:04:41;;;;;;;28.85;22.88;;;8.90;99.90;;;;;;4941124;28;20641;-69
2024/02/18 08:07:08;;;;;;;34.85;24.70;;;9.00;99.90;;;;;;4948252;28;20054;-69
2024/02/18 08:09:37;;;;;;;26.27;23.35;;;9.10;99.90;;;;;;4947075;28;20597;-69
2024/02/18 08:12:05;;;;;;;28.30;24.00;;;9.10;99.90;;;;;;4947892;28;20146;-69
2024/02/18 08:14:31;;;;;;;29.08;23.33;;;9.20;99.90;;;;;;4947898;28;20043;-68
2024/02/18 08:16:58;;;;;;;25.05;22.52;;;9.20;99.90;;;;;;4965620;28;20051;-69
2024/02/18 08:19:25;;;;;;;23.85;21.52;;;9.20;99.90;;;;;;4944998;28;20640;-67
2024/02/18 08:21:52;;;;;;;24.80;22.15;;;9.20;99.90;;;;;;4943685;28;20582;-69
2024/02/18 08:24:19;;;;;;;25.30;22.88;;;9.30;99.90;;;;;;4949464;28;20066;-68
2024/02/18 08:26:46;;;;;;;25.25;22.77;;;9.30;99.90;;;;;;4929384;28;20716;-68
2024/02/18 08:29:12;;;;;;;27.77;24.95;;;9.40;99.90;;;;;;4908220;28;20051;-68
2024/02/18 08:31:39;;;;;;;25.40;23.00;;;9.40;99.90;;;;;;4932474;28;20545;-69
2024/02/18 08:34:06;;;;;;;26.27;23.75;;;9.50;99.90;;;;;;4943903;28;20047;-68
2024/02/18 08:36:33;;;;;;;28.13;25.40;;;9.50;99.90;;;;;;4938954;28;20076;-67
2024/02/18 08:39:00;;;;;;;28.17;25.25;;;9.60;99.90;;;;;;4948063;28;20637;-68
2024/02/18 08:41:27;;;;;;;29.35;24.80;;;9.50;99.90;;;;;;4945938;28;20835;-68
2024/02/18 08:43:54;;;;;;;28.23;24.63;;;9.50;99.90;;;;;;4947934;28;20043;-68
2024/02/18 08:46:21;;;;;;;28.85;25.92;;;9.50;99.90;;;;;;4947063;28;20616;-69
2024/02/18 08:48:47;;;;;;;34.22;27.58;;;9.60;99.90;;;;;;4945510;28;20046;-68
2024/02/18 08:51:16;;;;;;;28.23;25.35;;;9.60;99.90;;;;;;4943951;28;20129;-68
2024/02/18 08:53:43;;;;;;;29.85;26.92;;;9.60;99.90;;;;;;4946900;28;20051;-68
2024/02/18 08:56:10;;;;;;;29.73;26.67;;;9.70;99.90;;;;;;4936536;28;20565;-68
2024/02/18 08:58:37;;;;;;;29.63;26.52;;;9.70;99.90;;;;;;4941275;28;20070;-68
2024/02/18 09:01:05;;;;;;;28.55;25.50;;;9.70;99.90;;;;;;4936023;28;20049;-68
2024/02/18 09:03:32;;;;;;;29.50;26.33;;;9.60;99.90;;;;;;4944114;28;20075;-68
2024/02/18 09:05:59;;;;;;;31.88;28.27;;;9.70;99.90;;;;;;4943388;28;20134;-68
2024/02/18 09:08:26;;;;;;;28.17;25.33;;;9.80;99.90;;;;;;4927042;28;20531;-67
2024/02/18 09:10:54;;;;;;;28.17;25.20;;;9.80;99.90;;;;;;4923005;28;20622;-68
2024/02/18 09:13:21;;;;;;;30.05;25.48;;;9.80;99.90;;;;;;4929267;28;20047;-69
2024/02/18 09:15:48;;;;;;;29.13;25.67;;;9.80;99.90;;;;;;4927540;28;20110;-68
2024/02/18 09:18:16;;;;;;;27.83;25.02;;;9.80;99.90;;;;;;4941668;28;20047;-68
2024/02/18 09:20:44;;;;;;;27.65;24.77;;;9.80;99.90;;;;;;4941530;28;20554;-68
2024/02/18 09:23:11;;;;;;;27.55;24.65;;;9.90;99.90;;;;;;4944261;28;20143;-69
2024/02/18 09:25:37;;;;;;;27.67;24.73;;;9.90;99.90;;;;;;4943882;28;20065;-66
2024/02/18 09:28:06;;;;;;;28.02;25.27;;;9.90;99.90;;;;;;4949289;28;20143;-69
2024/02/18 09:30:33;;;;;;;28.67;25.60;;;9.90;99.90;;;;;;4941497;28;20043;-69
2024/02/18 09:32:59;;;;;;;26.95;24.45;;;9.90;99.90;;;;;;4926420;28;20555;-69
2024/02/18 09:35:27;;;;;;;27.88;24.88;;;9.90;99.90;;;;;;4931813;28;20055;-67
2024/02/18 09:37:54;;;;;;;27.40;24.73;;;9.90;99.90;;;;;;4928484;28;20051;-67
2024/02/18 09:40:22;;;;;;;28.35;25.42;;;9.90;99.90;;;;;;4927994;28;20059;-67
2024/02/18 09:42:53;;;;;;;26.15;23.73;;;10.00;99.90;;;;;;4945503;28;20038;-68
2024/02/18 09:45:27;;;;;;;27.10;24.42;;;10.00;99.90;;;;;;4945838;28;20546;-68
2024/02/18 09:47:56;;;;;;;25.77;23.27;;;10.10;99.90;;;;;;4928116;28;20578;-68
2024/02/18 09:50:23;;;;;;;28.85;23.98;;;10.10;99.90;;;;;;4921814;28;20309;-68
2024/02/18 09:52:51;;;;;;;26.17;23.45;;;10.10;99.90;;;;;;4925744;28;20047;-68
2024/02/18 09:55:19;;;;;;;25.88;23.38;;;10.20;99.90;;;;;;4926588;28;20742;-69
2024/02/18 09:57:46;;;;;;;27.13;24.42;;;10.20;99.90;;;;;;4949769;28;20057;-68
2024/02/18 10:00:13;;;;;;;24.85;22.30;;;10.20;99.90;;;;;;4947693;28;20138;-68
2024/02/18 10:02:42;;;;;;;25.75;23.45;;;10.30;99.90;;;;;;4943872;28;20492;-68
2024/02/18 10:05:10;;;;;;;24.48;22.33;;;10.30;99.90;;;;;;4951748;28;20039;-69
2024/02/18 10:07:38;;;;;;;24.67;22.48;;;10.30;99.90;;;;;;4944768;28;20395;-68
2024/02/18 10:10:07;;;;;;;24.80;22.40;;;10.30;99.90;;;;;;4950122;28;20058;-68
2024/02/18 10:12:34;;;;;;;24.83;22.52;;;10.30;99.90;;;;;;4950561;28;20050;-71
2024/02/18 10:15:04;;;;;;;24.73;22.73;;;10.40;99.90;;;;;;4953383;28;20077;-68
2024/02/18 10:17:32;;;;;;;25.08;22.90;;;10.40;99.90;;;;;;4942944;28;20096;-68
2024/02/18 10:19:59;;;;;;;23.60;21.30;;;10.30;99.90;;;;;;4943112;28;20051;-69
2024/02/18 10:22:27;;;;;;;24.40;22.23;;;10.40;99.90;;;;;;4945410;28;20099;-69
2024/02/18 10:24:55;;;;;;;25.30;22.73;;;10.40;99.90;;;;;;4946510;28;20062;-68
2024/02/18 10:27:22;;;;;;;25.90;23.50;;;10.50;99.90;;;;;;4927234;28;20083;-68
2024/02/18 10:29:51;;;;;;;23.45;20.95;;;10.50;99.90;;;;;;4925834;28;20241;-68
2024/02/18 10:32:19;;;;;;;25.17;22.73;;;10.50;99.90;;;;;;4942965;28;20043;-68
2024/02/18 10:34:46;;;;;;;23.23;21.42;;;10.50;99.90;;;;;;4943465;28;20698;-68
2024/02/18 10:37:28;;;;;;;22.42;20.52;;;10.50;99.90;;;;;;4929356;28;20070;-69
2024/02/18 10:39:59;;;;;;;23.45;21.10;;;10.50;99.90;;;;;;4927572;28;20043;-69
2024/02/18 10:42:29;;;;;;;22.30;20.48;;;10.60;99.90;;;;;;4919754;28;20133;-68
2024/02/18 10:44:59;;;;;;;20.48;18.70;;;10.70;99.90;;;;;;4924540;28;20697;-69
2024/02/18 10:47:31;;;;;;;22.88;20.80;;;10.70;99.90;;;;;;4921550;28;20048;-68
2024/02/18 10:50:03;;;;;;;22.40;20.67;;;10.70;99.90;;;;;;4926991;28;20042;-68
2024/02/18 10:52:44;;;;;;;24.42;22.40;;;10.60;99.90;;;;;;4941546;28;20051;-68
2024/02/18 10:55:17;;;;;;;24.25;21.85;;;10.60;99.90;;;;;;4946366;28;20434;-67
2024/02/18 10:57:53;;;;;;;23.40;21.50;;;10.60;99.90;;;;;;4936862;28;20158;-68
2024/02/18 11:00:24;;;;;;;21.55;19.67;;;10.60;99.90;;;;;;4930400;28;20057;-67
2024/02/18 11:03:02;;;;;;;21.00;19.40;;;10.60;99.90;;;;;;4942660;28;20507;-68
2024/02/18 11:05:35;;;;;;;23.40;21.50;;;10.60;99.90;;;;;;4947942;28;20074;-68
2024/02/18 11:08:03;;;;;;;22.90;20.70;;;10.60;99.90;;;;;;4943788;28;20174;-68
2024/02/18 11:10:31;;;;;;;21.17;19.58;;;10.50;99.90;;;;;;4944922;28;20074;-68
2024/02/18 11:12:59;;;;;;;22.15;20.38;;;10.50;99.90;;;;;;4949072;28;20042;-68
2024/02/18 11:15:27;;;;;;;21.40;19.70;;;10.60;99.90;;;;;;4948519;28;20046;-68
2024/02/18 11:17:55;;;;;;;19.92;18.27;;;10.60;99.90;;;;;;4942412;28;20074;-68
2024/02/18 11:20:23;;;;;;;21.27;19.27;;;10.50;99.90;;;;;;4940299;28;20047;-68
2024/02/18 11:22:52;;;;;;;21.00;19.08;;;10.40;99.90;;;;;;4941788;28;20450;-68
2024/02/18 11:25:19;;;;;;;19.63;18.00;;;10.50;99.90;;;;;;4945730;28;20046;-68
2024/02/18 11:27:46;;;;;;;21.73;19.92;;;10.50;99.90;;;;;;4943538;28;20126;-68
2024/02/18 11:30:14;;;;;;;21.50;20.00;;;10.50;99.90;;;;;;4945396;28;20035;-68
2024/02/18 11:32:41;;;;;;;22.27;20.17;;;10.50;99.90;;;;;;4966471;28;20047;-67
2024/02/18 11:35:15;;;;;;;21.67;20.27;;;10.50;99.90;;;;;;4948312;28;20046;-67
2024/02/18 11:37:42;;;;;;;21.98;20.38;;;10.50;99.90;;;;;;4922575;28;20052;-66
2024/02/18 11:40:18;;;;;;;21.75;20.30;;;10.50;99.90;;;;;;4922552;28;20050;-65
2024/02/18 11:42:46;;;;;;;22.52;20.63;;;10.50;99.90;;;;;;4942438;28;20050;-69
2024/02/18 11:45:14;;;;;;;22.08;20.58;;;10.50;99.90;;;;;;4949322;28;20039;-67
2024/02/18 11:47:44;;;;;;;23.02;21.48;;;10.50;99.90;;;;;;4939814;28;21547;-68
2024/02/18 11:50:12;;;;;;;21.38;19.98;;;10.50;99.90;;;;;;4924436;28;20056;-68
2024/02/18 11:52:43;;;;;;;22.83;21.13;;;10.40;99.90;;;;;;4937776;28;20039;-68
2024/02/18 11:55:18;;;;;;;22.10;20.83;;;10.40;99.90;;;;;;4939426;28;20051;-69
2024/02/18 11:57:46;;;;;;;21.80;20.23;;;10.40;99.90;;;;;;4939238;28;20694;-68
2024/02/18 12:00:16;;;;;;;22.35;20.52;;;10.30;99.90;;;;;;4959447;28;20061;-68
2024/02/18 12:02:50;;;;;;;22.90;21.25;;;10.20;99.90;;;;;;4939812;28;20074;-67
2024/02/18 12:05:18;;;;;;;22.40;20.90;;;10.10;99.90;;;;;;4942841;28;20111;-68
2024/02/18 12:07:48;;;;;;;22.92;21.42;;;10.10;99.90;;;;;;4920378;28;20051;-68
2024/02/18 12:10:17;;;;;;;25.30;23.45;;;10.10;99.90;;;;;;4908009;28;20058;-68
2024/02/18 12:12:46;;;;;;;24.10;22.00;;;10.00;99.90;;;;;;4940023;28;20050;-67
2024/02/18 12:15:21;;;;;;;26.00;24.00;;;10.00;99.90;;;;;;4947423;28;20134;-68
2024/02/18 12:17:49;;;;;;;24.23;22.35;;;10.10;99.90;;;;;;4942143;28;20447;-68
2024/02/18 12:20:19;;;;;;;23.48;21.83;;;10.00;99.90;;;;;;4945076;28;20059;-68
2024/02/18 12:22:47;;;;;;;24.52;22.80;;;9.90;99.90;;;;;;4940295;28;20069;-68
2024/02/18 12:25:14;;;;;;;23.25;21.85;;;9.90;99.90;;;;;;4944962;28;20146;-67
2024/02/18 12:27:41;;;;;;;22.88;21.25;;;9.90;99.90;;;;;;4936280;28;20058;-68
2024/02/18 12:30:11;;;;;;;22.98;21.17;;;9.90;99.90;;;;;;4945089;28;20122;-67
2024/02/18 12:32:39;;;;;;;23.60;21.77;;;9.90;99.90;;;;;;4942535;28;20050;-66
2024/02/18 12:35:06;;;;;;;23.13;21.20;;;9.80;99.90;;;;;;4942072;28;20130;-67